Golden Meadow, Louisiana
Current Conditions -  °F | °C
As of 8:40 AM on Saturday 22 Nov 2014 (Local Time) from KXPY Reporting Station
Clear Clear  
Wind Chill: 66°   Ceiling: Unl
Heat Index: 66°   Visibility: 8mi
Dew Point: 61°   Wind: 10mph
Humidity: 83%   Direction: 80°E
Pressure: 30.22"   Gusts: NA
Location:  29.38°N, 90.26°W
Report Text: KXPY 221440Z AUTO 08009KT 8SM CLR 19/16 A3022 RMK A01
Loading
Personal Weather Stations






























Interactive Weather Map New forecast layout! Learn more

10-Day Weather Forecast

Advertisements
Track Severe Weather on mobile